Time;durP1;ratioP1;P1;durP2;ratioP2;P2;SDS_P1;SDS_P2;PMS_P1;PMS_P2;Temp;Humidity;BMP_temperature;BMP_pressure;BME280_temperature;BME280_humidity;BME280_pressure;Samples;Min_cycle;Max_cycle;Signal;HPM_P1;HPM_P2
2022/08/08 00:00:18;;;;;;;16.40;15.50;;;;;;;;;;5047529;28;20028;-59
2022/08/08 00:02:48;;;;;;;17.88;16.88;;;;;;;;;;5053044;28;20044;-59
2022/08/08 00:05:37;;;;;;;16.80;15.88;;;;;;;;;;5048918;28;20347;-59
2022/08/08 00:08:20;;;;;;;17.23;16.27;;;;;;;;;;5041034;28;20107;-59
2022/08/08 00:10:56;;;;;;;16.50;15.60;;;;;;;;;;5040458;28;20033;-59
2022/08/08 00:13:30;;;;;;;16.40;15.50;;;;;;;;;;5041363;28;20038;-59
2022/08/08 00:16:06;;;;;;;15.38;14.50;;;;;;;;;;5039494;28;20044;-59
2022/08/08 00:18:56;;;;;;;14.57;13.77;;;;;;;;;;5040625;28;20120;-60
2022/08/08 00:21:26;;;;;;;14.13;13.32;;;;;;;;;;5043674;28;20134;-59
2022/08/08 00:23:56;;;;;;;;;;;;;;;;;;5040831;28;20107;-59
2022/08/08 00:26:29;;;;;;;13.68;12.88;;;;;;;;;;5044173;28;20249;-59
2022/08/08 00:29:12;;;;;;;14.98;14.07;;;;;;;;;;5046899;28;20044;-60
2022/08/08 00:31:47;;;;;;;14.60;13.77;;;;;;;;;;5039919;28;20033;-60
2022/08/08 00:37:36;;;;;;;13.40;12.60;;;;;;;;;;5052374;28;20097;-61
2022/08/08 00:40:07;;;;;;;9.07;8.48;;;;;;;;;;5035669;28;20036;-62
2022/08/08 00:42:45;;;;;;;14.10;13.30;;;;;;;;;;5042402;28;20032;-62
2022/08/08 00:45:42;;;;;;;10.68;10.07;;;;;;;;;;5037107;28;20108;-62
2022/08/08 00:48:45;;;;;;;10.70;10.07;;;;;;;;;;5036368;28;20049;-62
2022/08/08 00:51:25;;;;;;;10.07;9.48;;;;;;;;;;5040497;28;20127;-63
2022/08/08 00:54:12;;;;;;;13.60;12.80;;;;;;;;;;5042073;28;20205;-63
2022/08/08 00:56:52;;;;;;;10.77;10.07;;;;;;;;;;5040915;28;20029;-62
2022/08/08 00:59:42;;;;;;;11.88;11.18;;;;;;;;;;5044296;28;20052;-62
2022/08/08 01:02:38;;;;;;;12.00;11.30;;;;;;;;;;5038947;28;20393;-62
2022/08/08 01:05:36;;;;;;;9.88;9.27;;;;;;;;;;5045581;28;20186;-61
2022/08/08 01:08:36;;;;;;;11.13;10.45;;;;;;;;;;5042267;28;20656;-61
2022/08/08 01:11:04;;;;;;;10.52;9.93;;;;;;;;;;5045044;28;20478;-61
2022/08/08 01:13:55;;;;;;;12.50;11.77;;;;;;;;;;5038991;28;20380;-60
2022/08/08 01:16:49;;;;;;;11.23;10.52;;;;;;;;;;5041567;28;20431;-60
2022/08/08 01:19:39;;;;;;;9.13;8.52;;;;;;;;;;5039148;28;20020;-60
2022/08/08 01:22:38;;;;;;;10.15;9.55;;;;;;;;;;5046238;28;20028;-61
2022/08/08 01:25:31;;;;;;;8.18;7.68;;;;;;;;;;5039986;28;20348;-61
2022/08/08 01:28:19;;;;;;;8.32;7.82;;;;;;;;;;5044033;28;20149;-60
2022/08/08 01:31:17;;;;;;;9.75;9.15;;;;;;;;;;5039878;28;20154;-60
2022/08/08 01:34:04;;;;;;;8.75;8.20;;;;;;;;;;5038961;28;20033;-60
2022/08/08 01:37:04;;;;;;;9.13;8.52;;;;;;;;;;5046479;28;20029;-60
2022/08/08 01:39:47;;;;;;;8.70;8.10;;;;;;;;;;5043672;28;20370;-60
2022/08/08 01:42:31;;;;;;;8.15;7.55;;;;;;;;;;5041246;28;20120;-60
2022/08/08 01:45:34;;;;;;;6.43;6.03;;;;;;;;;;5045768;28;20032;-60
2022/08/08 01:48:22;;;;;;;7.10;6.60;;;;;;;;;;5038762;28;20037;-60
2022/08/08 01:51:25;;;;;;;6.10;5.70;;;;;;;;;;5035383;28;20384;-60
2022/08/08 01:54:00;;;;;;;6.20;5.80;;;;;;;;;;5039611;28;20099;-60
2022/08/08 01:56:44;;;;;;;7.03;6.53;;;;;;;;;;5041430;28;20590;-60
2022/08/08 01:59:34;;;;;;;7.35;6.85;;;;;;;;;;5040507;28;20111;-59
2022/08/08 02:02:38;;;;;;;7.80;7.30;;;;;;;;;;5044192;28;20028;-60
2022/08/08 02:05:30;;;;;;;7.30;6.80;;;;;;;;;;5006855;28;20419;-60
2022/08/08 02:08:29;;;;;;;6.30;5.90;;;;;;;;;;5038615;28;20025;-60
2022/08/08 02:11:08;;;;;;;7.40;6.90;;;;;;;;;;5042746;28;20048;-60
2022/08/08 02:13:56;;;;;;;6.82;6.32;;;;;;;;;;5043446;28;20025;-60
2022/08/08 02:16:25;;;;;;;7.97;7.43;;;;;;;;;;5038584;28;20064;-60
2022/08/08 02:19:02;;;;;;;6.15;5.75;;;;;;;;;;5041900;28;20129;-60
2022/08/08 02:24:48;;;;;;;7.20;6.70;;;;;;;;;;5036957;28;20040;-60
2022/08/08 02:27:20;;;;;;;6.78;6.28;;;;;;;;;;5038905;28;20020;-59
2022/08/08 02:30:00;;;;;;;7.45;6.95;;;;;;;;;;5043620;28;20029;-60
2022/08/08 02:32:44;;;;;;;;;;;;;;;;;;5041923;28;20520;-60
2022/08/08 02:35:28;;;;;;;6.82;6.32;;;;;;;;;;5042612;28;19931;-60
2022/08/08 02:37:54;;;;;;;7.25;6.75;;;;;;;;;;5045234;28;20047;-59
2022/08/08 02:40:44;;;;;;;6.82;6.32;;;;;;;;;;5042410;28;20037;-60
2022/08/08 02:43:29;;;;;;;5.95;5.55;;;;;;;;;;5042302;28;20033;-60
2022/08/08 02:46:26;;;;;;;7.15;6.65;;;;;;;;;;5040439;28;20033;-60
2022/08/08 02:49:15;;;;;;;6.60;6.20;;;;;;;;;;5039389;28;20040;-59
2022/08/08 02:52:08;;;;;;;6.80;6.30;;;;;;;;;;5037967;28;20063;-60
2022/08/08 02:54:43;;;;;;;7.10;6.60;;;;;;;;;;5044849;28;20225;-59
2022/08/08 02:57:53;;;;;;;6.80;6.30;;;;;;;;;;5041048;28;20037;-59
2022/08/08 03:00:49;;;;;;;6.32;5.90;;;;;;;;;;5045206;28;20025;-59
2022/08/08 03:03:44;;;;;;;9.27;6.63;;;;;;;;;;5042830;28;20064;-59
2022/08/08 03:06:33;;;;;;;5.80;5.40;;;;;;;;;;5049678;28;20405;-59
2022/08/08 03:09:36;;;;;;;5.65;5.25;;;;;;;;;;5044903;28;20017;-59
2022/08/08 03:12:31;;;;;;;5.97;5.57;;;;;;;;;;5046959;28;20104;-59
2022/08/08 03:15:06;;;;;;;6.05;5.65;;;;;;;;;;5047083;28;20328;-59
2022/08/08 03:18:14;;;;;;;5.68;5.28;;;;;;;;;;5045663;28;20499;-59
2022/08/08 03:20:46;;;;;;;5.30;4.90;;;;;;;;;;5034300;28;20051;-59
2022/08/08 03:23:12;;;;;;;6.80;6.30;;;;;;;;;;5048650;28;20036;-59
2022/08/08 03:25:38;;;;;;;5.47;5.07;;;;;;;;;;5043816;28;20224;-58
2022/08/08 03:28:06;;;;;;;4.90;4.50;;;;;;;;;;5040290;28;20039;-59
2022/08/08 03:30:32;;;;;;;5.85;5.45;;;;;;;;;;5043622;28;20532;-59
2022/08/08 03:33:17;;;;;;;5.90;5.50;;;;;;;;;;5043210;28;20033;-60
2022/08/08 03:35:43;;;;;;;9.05;6.05;;;;;;;;;;5043581;28;20032;-60
2022/08/08 03:38:09;;;;;;;5.57;5.18;;;;;;;;;;5047645;28;20033;-60
2022/08/08 03:40:34;;;;;;;6.75;6.25;;;;;;;;;;5048244;28;20039;-60
2022/08/08 03:43:00;;;;;;;5.32;4.93;;;;;;;;;;5043993;28;20021;-60
2022/08/08 03:45:27;;;;;;;5.10;4.70;;;;;;;;;;5046311;28;20033;-60
2022/08/08 03:47:55;;;;;;;5.65;5.25;;;;;;;;;;5037361;28;20051;-60
2022/08/08 03:50:22;;;;;;;6.00;5.50;;;;;;;;;;5047585;28;20026;-60
2022/08/08 03:52:47;;;;;;;5.28;4.88;;;;;;;;;;5040162;28;20033;-61
2022/08/08 03:55:15;;;;;;;5.40;5.00;;;;;;;;;;5043774;28;20370;-61
2022/08/08 03:57:50;;;;;;;5.72;5.32;;;;;;;;;;5044416;28;20530;-61
2022/08/08 04:00:18;;;;;;;5.13;4.72;;;;;;;;;;5038949;28;20108;-60
2022/08/08 04:02:53;;;;;;;6.80;6.30;;;;;;;;;;5040814;28;20033;-60
2022/08/08 04:05:19;;;;;;;6.25;5.85;;;;;;;;;;5043686;28;20041;-61
2022/08/08 04:07:45;;;;;;;5.50;5.10;;;;;;;;;;5039773;28;20036;-60
2022/08/08 04:10:10;;;;;;;5.63;5.22;;;;;;;;;;5042171;28;20028;-60
2022/08/08 04:12:36;;;;;;;5.97;5.57;;;;;;;;;;5040543;28;20418;-61
2022/08/08 04:15:03;;;;;;;5.68;5.28;;;;;;;;;;5041622;28;20083;-61
2022/08/08 04:17:29;;;;;;;5.55;5.15;;;;;;;;;;5042513;28;20431;-60
2022/08/08 04:19:55;;;;;;;5.45;5.05;;;;;;;;;;5044600;28;20047;-60
2022/08/08 04:22:21;;;;;;;6.05;5.65;;;;;;;;;;5043203;28;20052;-60
2022/08/08 04:24:46;;;;;;;5.65;5.25;;;;;;;;;;5040063;28;20627;-61
2022/08/08 04:27:12;;;;;;;5.05;4.65;;;;;;;;;;5044641;28;20036;-60
2022/08/08 04:29:37;;;;;;;5.15;4.75;;;;;;;;;;5043031;28;20036;-60
2022/08/08 04:32:06;;;;;;;4.93;4.53;;;;;;;;;;5044710;28;20033;-61
2022/08/08 04:34:31;;;;;;;5.15;4.75;;;;;;;;;;5041268;28;20041;-61
2022/08/08 04:36:57;;;;;;;5.10;4.70;;;;;;;;;;5039652;28;20477;-61
2022/08/08 04:39:22;;;;;;;5.60;5.20;;;;;;;;;;5042654;28;20037;-61
2022/08/08 04:41:47;;;;;;;5.35;4.95;;;;;;;;;;5043361;28;20033;-60
2022/08/08 04:44:13;;;;;;;6.82;4.65;;;;;;;;;;5048421;28;20036;-61
2022/08/08 04:46:38;;;;;;;5.20;4.80;;;;;;;;;;5043363;28;20037;-61
2022/08/08 04:49:04;;;;;;;5.70;5.30;;;;;;;;;;5040554;28;20494;-61
2022/08/08 04:51:29;;;;;;;5.22;4.82;;;;;;;;;;5042941;28;20033;-61
2022/08/08 04:53:54;;;;;;;5.85;5.45;;;;;;;;;;5039119;28;20044;-61
2022/08/08 04:56:20;;;;;;;5.45;5.05;;;;;;;;;;5040964;28;20059;-60
2022/08/08 04:58:45;;;;;;;5.13;4.72;;;;;;;;;;5042533;28;20061;-61
2022/08/08 05:01:10;;;;;;;5.43;5.03;;;;;;;;;;5040070;28;20108;-59
2022/08/08 05:03:36;;;;;;;5.88;5.47;;;;;;;;;;5033660;28;20048;-59
2022/08/08 05:06:01;;;;;;;5.35;4.95;;;;;;;;;;5044132;28;20025;-59
2022/08/08 05:08:26;;;;;;;6.10;5.70;;;;;;;;;;5040068;28;20032;-59
2022/08/08 05:10:52;;;;;;;5.70;5.30;;;;;;;;;;5039940;28;20029;-59
2022/08/08 05:13:18;;;;;;;6.03;5.53;;;;;;;;;;5039540;28;20060;-60
2022/08/08 05:15:43;;;;;;;5.55;5.15;;;;;;;;;;5043659;28;20029;-59
2022/08/08 05:18:08;;;;;;;5.70;5.30;;;;;;;;;;5043495;28;20036;-59
2022/08/08 05:20:34;;;;;;;6.05;5.65;;;;;;;;;;5041441;28;20088;-58
2022/08/08 05:22:59;;;;;;;5.75;5.35;;;;;;;;;;5040539;28;20108;-59
2022/08/08 05:25:25;;;;;;;5.40;5.00;;;;;;;;;;5043167;28;20040;-60
2022/08/08 05:27:52;;;;;;;5.82;5.43;;;;;;;;;;5041629;28;20117;-60
2022/08/08 05:30:17;;;;;;;5.30;4.90;;;;;;;;;;5040443;28;20033;-60
2022/08/08 05:32:43;;;;;;;5.63;5.22;;;;;;;;;;5041359;28;20041;-60
2022/08/08 05:35:11;;;;;;;5.57;5.18;;;;;;;;;;5027372;28;20025;-60
2022/08/08 05:37:38;;;;;;;6.07;5.68;;;;;;;;;;5041224;28;20034;-59
2022/08/08 05:40:04;;;;;;;5.50;5.10;;;;;;;;;;5042890;28;20037;-60
2022/08/08 05:42:53;;;;;;;6.47;6.07;;;;;;;;;;5045549;28;20052;-60
2022/08/08 05:45:18;;;;;;;6.35;5.95;;;;;;;;;;5044409;28;20045;-59
2022/08/08 05:47:44;;;;;;;6.05;5.65;;;;;;;;;;5040178;28;20090;-59
2022/08/08 05:50:10;;;;;;;6.60;6.13;;;;;;;;;;5042651;28;20044;-59
2022/08/08 05:52:37;;;;;;;6.97;6.47;;;;;;;;;;5036328;28;20037;-59
2022/08/08 05:55:04;;;;;;;7.28;6.78;;;;;;;;;;5044434;28;20087;-59
2022/08/08 05:57:33;;;;;;;7.68;7.18;;;;;;;;;;5043906;28;20098;-59
2022/08/08 06:00:02;;;;;;;5.72;5.32;;;;;;;;;;5040668;28;20123;-59
2022/08/08 06:05:17;;;;;;;6.53;6.10;;;;;;;;;;5041201;28;20032;-59
2022/08/08 06:07:46;;;;;;;7.93;7.43;;;;;;;;;;5039488;28;20048;-59
2022/08/08 06:10:11;;;;;;;7.15;6.65;;;;;;;;;;5035031;28;20025;-59
2022/08/08 06:12:37;;;;;;;7.47;6.97;;;;;;;;;;5041463;28;20040;-59
2022/08/08 06:15:05;;;;;;;8.60;8.00;;;;;;;;;;5045514;28;20036;-59
2022/08/08 06:17:33;;;;;;;8.65;8.13;;;;;;;;;;5040988;28;20041;-60
2022/08/08 06:20:01;;;;;;;8.48;7.97;;;;;;;;;;5040462;28;20499;-58
2022/08/08 06:22:26;;;;;;;8.13;7.63;;;;;;;;;;5039311;28;20120;-59
2022/08/08 06:24:52;;;;;;;8.93;8.32;;;;;;;;;;5038349;28;20193;-59
2022/08/08 06:27:31;;;;;;;7.63;7.13;;;;;;;;;;5037999;28;20334;-59
2022/08/08 06:30:08;;;;;;;11.13;10.43;;;;;;;;;;5039420;28;20490;-59
2022/08/08 06:32:40;;;;;;;8.52;8.02;;;;;;;;;;5039648;28;20104;-59
2022/08/08 06:35:09;;;;;;;11.50;10.80;;;;;;;;;;5036468;28;20454;-59
2022/08/08 06:37:37;;;;;;;14.95;14.13;;;;;;;;;;5040712;28;20521;-59
2022/08/08 06:40:05;;;;;;;15.35;14.48;;;;;;;;;;5044187;28;20021;-59
2022/08/08 06:42:34;;;;;;;13.38;12.57;;;;;;;;;;5039412;28;20032;-59
2022/08/08 06:45:02;;;;;;;14.98;14.13;;;;;;;;;;5038050;28;20033;-59
2022/08/08 06:47:28;;;;;;;21.05;19.92;;;;;;;;;;5039738;28;20024;-59
2022/08/08 06:49:54;;;;;;;23.00;21.77;;;;;;;;;;5043245;28;20082;-59
2022/08/08 06:52:20;;;;;;;23.92;22.63;;;;;;;;;;5042545;28;20036;-59
2022/08/08 06:54:47;;;;;;;25.30;23.95;;;;;;;;;;5043279;28;20571;-59
2022/08/08 06:57:13;;;;;;;22.83;21.58;;;;;;;;;;5042116;28;20032;-59
2022/08/08 06:59:38;;;;;;;32.55;30.88;;;;;;;;;;5041294;28;20045;-59
2022/08/08 07:02:04;;;;;;;28.90;27.38;;;;;;;;;;5038366;28;20446;-59
2022/08/08 07:04:45;;;;;;;28.52;27.05;;;;;;;;;;5042299;28;20041;-59
2022/08/08 07:07:13;;;;;;;28.92;27.40;;;;;;;;;;5038824;28;20439;-59
2022/08/08 07:09:49;;;;;;;29.92;28.35;;;;;;;;;;5038612;28;20384;-59
2022/08/08 07:12:21;;;;;;;32.42;30.77;;;;;;;;;;5038012;28;20021;-59
2022/08/08 07:15:01;;;;;;;25.70;24.35;;;;;;;;;;5039260;28;20190;-59
2022/08/08 07:17:44;;;;;;;37.28;35.35;;;;;;;;;;5040896;28;20445;-59
2022/08/08 07:20:18;;;;;;;24.88;23.58;;;;;;;;;;5040172;28;20048;-59
2022/08/08 07:23:06;;;;;;;35.15;33.35;;;;;;;;;;5038679;28;20029;-59
2022/08/08 07:25:37;;;;;;;30.00;28.45;;;;;;;;;;5042939;28;20029;-60
2022/08/08 07:28:07;;;;;;;40.42;38.38;;;;;;;;;;5039879;28;20025;-59
2022/08/08 07:30:33;;;;;;;33.45;31.75;;;;;;;;;;5042380;28;20108;-59
2022/08/08 07:32:59;;;;;;;39.20;37.22;;;;;;;;;;5038796;28;20107;-59
2022/08/08 07:35:26;;;;;;;31.25;29.65;;;;;;;;;;5043275;28;20086;-59
2022/08/08 07:37:52;;;;;;;36.58;34.70;;;;;;;;;;5037483;28;20021;-59
2022/08/08 07:40:17;;;;;;;21.83;20.63;;;;;;;;;;5035706;28;20048;-58
2022/08/08 07:42:43;;;;;;;13.13;12.32;;;;;;;;;;5034911;28;20340;-59
2022/08/08 07:45:09;;;;;;;17.45;16.48;;;;;;;;;;5038366;28;20024;-59
2022/08/08 07:47:35;;;;;;;15.13;14.27;;;;;;;;;;5040511;28;20028;-59
2022/08/08 07:50:01;;;;;;;11.00;10.32;;;;;;;;;;5042289;28;20037;-59
2022/08/08 07:52:27;;;;;;;16.15;15.25;;;;;;;;;;5043898;28;20205;-59
2022/08/08 07:55:04;;;;;;;19.38;18.30;;;;;;;;;;5045342;28;20066;-59
2022/08/08 07:57:53;;;;;;;13.02;12.25;;;;;;;;;;5042697;28;20519;-58
2022/08/08 08:00:18;;;;;;;11.52;10.82;;;;;;;;;;5041365;28;20676;-59
2022/08/08 08:02:52;;;;;;;16.13;15.23;;;;;;;;;;5042997;28;20256;-59
2022/08/08 08:05:25;;;;;;;11.52;10.82;;;;;;;;;;5044084;28;20090;-59
2022/08/08 08:07:59;;;;;;;12.40;11.70;;;;;;;;;;5044333;28;20017;-59
2022/08/08 08:10:27;;;;;;;13.88;13.07;;;;;;;;;;5039337;28;20036;-59
2022/08/08 08:13:00;;;;;;;13.98;13.18;;;;;;;;;;5039902;28;20501;-59
2022/08/08 08:15:25;;;;;;;14.00;13.20;;;;;;;;;;5042820;28;20111;-59
2022/08/08 08:17:57;;;;;;;12.77;12.07;;;;;;;;;;5037715;28;20112;-59
2022/08/08 08:20:28;;;;;;;15.07;14.23;;;;;;;;;;5057571;28;20142;-59
2022/08/08 08:22:53;;;;;;;13.48;12.68;;;;;;;;;;5038350;28;20047;-59
2022/08/08 08:25:18;;;;;;;19.33;18.25;;;;;;;;;;5041171;28;20124;-59
2022/08/08 08:27:44;;;;;;;20.00;18.70;;;;;;;;;;5046681;28;20033;-59
2022/08/08 08:30:10;;;;;;;25.67;24.30;;;;;;;;;;5044240;28;20423;-59
2022/08/08 08:32:35;;;;;;;29.08;27.55;;;;;;;;;;5041974;28;20032;-59
2022/08/08 08:35:01;;;;;;;19.88;18.77;;;;;;;;;;5044851;28;20409;-59
2022/08/08 08:37:27;;;;;;;33.17;31.48;;;;;;;;;;5041912;28;20033;-59
2022/08/08 08:39:52;;;;;;;30.80;29.20;;;;;;;;;;5041540;28;20489;-59
2022/08/08 08:42:18;;;;;;;40.55;38.47;;;;;;;;;;5045835;28;20029;-58
2022/08/08 08:44:44;;;;;;;30.75;29.10;;;;;;;;;;5041534;28;20039;-59
2022/08/08 08:47:09;;;;;;;24.27;23.00;;;;;;;;;;5039283;28;20565;-59
2022/08/08 08:49:34;;;;;;;42.22;40.08;;;;;;;;;;5038167;28;20630;-58
2022/08/08 08:52:03;;;;;;;47.60;45.20;;;;;;;;;;5043556;28;20060;-58
2022/08/08 08:54:33;;;;;;;47.08;44.67;;;;;;;;;;5041344;28;20485;-59
2022/08/08 08:57:00;;;;;;;48.15;45.72;;;;;;;;;;5042151;28;20056;-59
2022/08/08 08:59:30;;;;;;;48.20;45.78;;;;;;;;;;5040366;28;20032;-58
2022/08/08 09:01:56;;;;;;;47.47;45.08;;;;;;;;;;5038622;28;20503;-58
2022/08/08 09:04:24;;;;;;;47.22;44.85;;;;;;;;;;5039121;28;20049;-59
2022/08/08 09:06:52;;;;;;;54.17;51.47;;;;;;;;;;5042113;28;20502;-59
2022/08/08 09:09:25;;;;;;;48.22;45.80;;;;;;;;;;5039746;28;20527;-58
2022/08/08 09:11:53;;;;;;;49.85;47.33;;;;;;;;;;5034867;28;20039;-58
2022/08/08 09:14:23;;;;;;;51.30;48.70;;;;;;;;;;5043364;28;20029;-58
2022/08/08 09:16:49;;;;;;;;;;;;;;;;;;5040895;28;20516;-58
2022/08/08 09:19:16;;;;;;;47.15;44.75;;;;;;;;;;5039796;28;20011;-58
2022/08/08 09:21:42;;;;;;;53.95;51.22;;;;;;;;;;5038912;28;20052;-58
2022/08/08 09:24:08;;;;;;;53.17;50.47;;;;;;;;;;5041569;28;20045;-58
2022/08/08 09:26:55;;;;;;;51.38;48.78;;;;;;;;;;5044709;28;20029;-59
2022/08/08 09:29:22;;;;;;;57.67;54.78;;;;;;;;;;5037094;28;20091;-58
2022/08/08 09:32:02;;;;;;;59.13;56.17;;;;;;;;;;5044229;28;20031;-59
2022/08/08 09:34:31;;;;;;;54.75;52.03;;;;;;;;;;5044569;28;20108;-59
2022/08/08 09:37:09;;;;;;;50.47;47.88;;;;;;;;;;5043651;28;20047;-59
2022/08/08 09:39:55;;;;;;;57.55;54.65;;;;;;;;;;5044918;28;20112;-60
2022/08/08 09:42:22;;;;;;;59.95;56.95;;;;;;;;;;5048440;28;20072;-58
2022/08/08 09:45:03;;;;;;;53.97;51.28;;;;;;;;;;5047916;28;20669;-59
2022/08/08 09:47:31;;;;;;;40.95;38.85;;;;;;;;;;5045472;28;20036;-59
2022/08/08 09:49:58;;;;;;;52.25;49.63;;;;;;;;;;5047464;28;20478;-59
2022/08/08 09:52:30;;;;;;;47.85;45.40;;;;;;;;;;5044249;28;20090;-60
2022/08/08 09:54:55;;;;;;;40.65;38.58;;;;;;;;;;5038972;28;20083;-59
2022/08/08 09:57:35;;;;;;;60.53;57.53;;;;;;;;;;5045392;28;20068;-60
2022/08/08 10:00:03;;;;;;;46.90;44.53;;;;;;;;;;5040259;28;20025;-60
2022/08/08 10:02:37;;;;;;;53.80;51.10;;;;;;;;;;5044233;28;20055;-60
2022/08/08 10:05:15;;;;;;;38.85;36.85;;;;;;;;;;5040247;28;20106;-58
2022/08/08 10:07:50;;;;;;;44.55;42.28;;;;;;;;;;5044926;28;20080;-59
2022/08/08 10:10:37;;;;;;;48.80;46.28;;;;;;;;;;5044435;28;20036;-60
2022/08/08 10:13:25;;;;;;;53.97;51.28;;;;;;;;;;5044329;28;20021;-59
2022/08/08 10:15:53;;;;;;;61.25;58.20;;;;;;;;;;5047247;28;20036;-60
2022/08/08 10:18:28;;;;;;;41.45;39.35;;;;;;;;;;5035411;28;20467;-59
2022/08/08 10:21:06;;;;;;;39.85;37.80;;;;;;;;;;5042974;28;20632;-59
2022/08/08 10:23:46;;;;;;;43.13;40.92;;;;;;;;;;5040127;28;20068;-61
2022/08/08 10:26:29;;;;;;;46.65;44.28;;;;;;;;;;5042161;28;20375;-60
2022/08/08 10:29:00;;;;;;;45.50;43.17;;;;;;;;;;5041344;28;20032;-59
2022/08/08 10:34:15;;;;;;;47.08;44.65;;;;;;;;;;5045287;28;20099;-59
2022/08/08 10:36:42;;;;;;;50.03;47.53;;;;;;;;;;5044411;28;20033;-59
2022/08/08 10:39:16;;;;;;;59.20;56.25;;;;;;;;;;5041427;28;20351;-59
2022/08/08 10:41:44;;;;;;;58.72;55.80;;;;;;;;;;5046425;28;20047;-59
2022/08/08 10:44:11;;;;;;;50.25;47.75;;;;;;;;;;5043064;28;20033;-61
2022/08/08 10:46:37;;;;;;;51.35;48.78;;;;;;;;;;5041267;28;20052;-58
2022/08/08 10:49:02;;;;;;;60.47;57.47;;;;;;;;;;5045848;28;20056;-60
2022/08/08 10:51:33;;;;;;;48.53;46.10;;;;;;;;;;5046630;28;20725;-60
2022/08/08 10:53:58;;;;;;;53.75;51.05;;;;;;;;;;5045563;28;20074;-60
2022/08/08 10:56:24;;;;;;;51.10;48.35;;;;;;;;;;5041400;28;20053;-59
2022/08/08 10:58:56;;;;;;;51.88;49.28;;;;;;;;;;5041969;28;20068;-58
2022/08/08 11:01:27;;;;;;;54.45;51.70;;;;;;;;;;5038355;28;20033;-59
2022/08/08 11:03:56;;;;;;;50.70;48.13;;;;;;;;;;5040938;28;20106;-59
2022/08/08 11:06:22;;;;;;;59.90;56.90;;;;;;;;;;5043479;28;20033;-59
2022/08/08 11:08:47;;;;;;;59.17;56.20;;;;;;;;;;5043916;28;20058;-59
2022/08/08 11:11:13;;;;;;;53.08;50.40;;;;;;;;;;5040117;28;20474;-58
2022/08/08 11:13:39;;;;;;;65.60;62.30;;;;;;;;;;5037234;28;20065;-59
2022/08/08 11:16:06;;;;;;;73.25;69.60;;;;;;;;;;5044033;28;20040;-59
2022/08/08 11:18:35;;;;;;;64.35;60.92;;;;;;;;;;5042389;28;20111;-59
2022/08/08 11:21:03;;;;;;;64.93;61.70;;;;;;;;;;5043523;28;20025;-59
2022/08/08 11:23:33;;;;;;;74.55;70.85;;;;;;;;;;5044379;28;20029;-59
2022/08/08 11:26:06;;;;;;;71.05;67.53;;;;;;;;;;5041503;28;20086;-59
2022/08/08 11:28:34;;;;;;;75.38;71.63;;;;;;;;;;5042798;28;20263;-59
2022/08/08 11:31:01;;;;;;;84.22;80.10;;;;;;;;;;5042807;28;20036;-59
2022/08/08 11:33:27;;;;;;;76.93;73.13;;;;;;;;;;5042296;28;20041;-59
2022/08/08 11:35:54;;;;;;;81.85;77.82;;;;;;;;;;5046428;28;20116;-59
2022/08/08 11:38:20;;;;;;;78.93;75.00;;;;;;;;;;5042956;28;20029;-58
2022/08/08 11:40:47;;;;;;;79.88;75.95;;;;;;;;;;5046416;28;20055;-59
2022/08/08 11:43:13;;;;;;;72.97;69.28;;;;;;;;;;5045447;28;20096;-58
2022/08/08 11:45:41;;;;;;;80.55;76.55;;;;;;;;;;5041005;28;20040;-58
2022/08/08 11:48:07;;;;;;;89.15;84.75;;;;;;;;;;5041718;28;20017;-58
2022/08/08 11:50:33;;;;;;;80.88;76.88;;;;;;;;;;5046331;28;20900;-59
2022/08/08 11:52:59;;;;;;;73.10;69.45;;;;;;;;;;5042925;28;20112;-59
2022/08/08 11:55:27;;;;;;;70.40;66.88;;;;;;;;;;5042787;28;20025;-59
2022/08/08 11:58:04;;;;;;;77.82;74.00;;;;;;;;;;5041886;28;20415;-59
2022/08/08 12:00:29;;;;;;;93.55;88.95;;;;;;;;;;5045924;28;20513;-59
2022/08/08 12:02:56;;;;;;;85.50;81.28;;;;;;;;;;5044920;28;20041;-59
2022/08/08 12:05:36;;;;;;;82.15;78.07;;;;;;;;;;5039984;28;20033;-59
2022/08/08 12:08:02;;;;;;;85.85;81.65;;;;;;;;;;5042218;28;20068;-59
2022/08/08 12:10:29;;;;;;;81.68;77.68;;;;;;;;;;5044619;28;20065;-59
2022/08/08 12:13:03;;;;;;;96.82;92.07;;;;;;;;;;5042321;28;20033;-59
2022/08/08 12:15:36;;;;;;;79.50;75.60;;;;;;;;;;5043276;28;20078;-59
2022/08/08 12:18:19;;;;;;;79.65;75.72;;;;;;;;;;5040248;28;20553;-59
2022/08/08 12:20:44;;;;;;;77.75;73.90;;;;;;;;;;5037765;28;20569;-59
2022/08/08 12:23:10;;;;;;;88.60;84.22;;;;;;;;;;5038870;28;20033;-59
2022/08/08 12:25:35;;;;;;;76.68;72.88;;;;;;;;;;5037989;28;20626;-58
2022/08/08 12:28:13;;;;;;;79.80;75.85;;;;;;;;;;5035774;28;20103;-59
2022/08/08 12:30:39;;;;;;;81.93;77.88;;;;;;;;;;5040014;28;20041;-59
2022/08/08 12:33:18;;;;;;;79.20;75.28;;;;;;;;;;5042956;28;20687;-59
2022/08/08 12:35:44;;;;;;;78.40;74.50;;;;;;;;;;5043457;28;20037;-59
2022/08/08 12:38:12;;;;;;;63.88;60.67;;;;;;;;;;5044226;28;20905;-59
2022/08/08 12:40:41;;;;;;;77.88;73.93;;;;;;;;;;5042258;28;20025;-59
2022/08/08 12:43:07;;;;;;;72.50;68.93;;;;;;;;;;5045979;28;20025;-59
2022/08/08 12:45:43;;;;;;;74.45;70.78;;;;;;;;;;5043956;28;20045;-59
2022/08/08 12:48:16;;;;;;;76.75;72.95;;;;;;;;;;5045948;28;20052;-59
2022/08/08 12:50:44;;;;;;;78.57;74.70;;;;;;;;;;5044539;28;20039;-59
2022/08/08 12:53:24;;;;;;;74.13;70.47;;;;;;;;;;5044280;28;20036;-59
2022/08/08 12:55:51;;;;;;;76.90;73.10;;;;;;;;;;5045594;28;20158;-59
2022/08/08 12:58:16;;;;;;;69.65;66.20;;;;;;;;;;5042235;28;20463;-59
2022/08/08 13:00:42;;;;;;;97.82;92.85;;;;;;;;;;5044918;28;20059;-59
2022/08/08 13:03:07;;;;;;;106.03;100.82;;;;;;;;;;5046368;28;20104;-59
2022/08/08 13:05:33;;;;;;;88.10;83.78;;;;;;;;;;5045480;28;20347;-58
2022/08/08 13:07:58;;;;;;;83.00;78.90;;;;;;;;;;5043959;28;20611;-58
2022/08/08 13:10:31;;;;;;;77.88;74.03;;;;;;;;;;5041988;28;20037;-58
2022/08/08 13:13:00;;;;;;;78.50;74.63;;;;;;;;;;5044034;28;20033;-59
2022/08/08 13:15:28;;;;;;;95.70;91.00;;;;;;;;;;5043940;28;20044;-59
2022/08/08 13:17:54;;;;;;;83.43;79.32;;;;;;;;;;5036996;28;20029;-59
2022/08/08 13:20:20;;;;;;;69.43;65.97;;;;;;;;;;5041689;28;20040;-59
2022/08/08 13:22:46;;;;;;;76.57;72.75;;;;;;;;;;5041362;28;20037;-59
2022/08/08 13:25:21;;;;;;;72.28;68.68;;;;;;;;;;5042860;28;20033;-59
2022/08/08 13:27:54;;;;;;;64.75;61.53;;;;;;;;;;5041629;28;20036;-59
2022/08/08 13:30:23;;;;;;;87.88;83.50;;;;;;;;;;5044405;28;20064;-59
2022/08/08 13:32:53;;;;;;;;;;;;;;;;;;5044555;28;20030;-59
2022/08/08 13:35:18;;;;;;;;;;;;;;;;;;5042191;28;19978;-59
2022/08/08 13:37:44;;;;;;;75.30;71.60;;;;;;;;;;5039049;28;20393;-59
2022/08/08 13:40:11;;;;;;;92.32;87.82;;;;;;;;;;5040904;28;20021;-59
2022/08/08 13:42:37;;;;;;;73.88;70.22;;;;;;;;;;5046811;28;20024;-59
2022/08/08 13:45:03;;;;;;;72.22;68.68;;;;;;;;;;5060273;28;20395;-59
2022/08/08 13:47:28;;;;;;;78.03;74.13;;;;;;;;;;5041305;28;20032;-59
2022/08/08 13:50:04;;;;;;;91.45;86.95;;;;;;;;;;5042281;28;20029;-59
2022/08/08 13:52:30;;;;;;;100.05;95.15;;;;;;;;;;5043401;28;20041;-59
2022/08/08 13:54:57;;;;;;;100.10;95.20;;;;;;;;;;5042562;28;20029;-59
2022/08/08 13:57:28;;;;;;;74.40;70.72;;;;;;;;;;5036965;28;20036;-59
2022/08/08 14:00:03;;;;;;;73.22;69.57;;;;;;;;;;5044587;28;20033;-59
2022/08/08 14:02:29;;;;;;;66.05;62.75;;;;;;;;;;5045117;28;20028;-59
2022/08/08 14:04:59;;;;;;;87.82;83.50;;;;;;;;;;5044021;28;20037;-59
2022/08/08 14:07:28;;;;;;;88.88;84.47;;;;;;;;;;5038037;28;20020;-59
2022/08/08 14:10:03;;;;;;;92.53;87.97;;;;;;;;;;5041384;28;20463;-59
2022/08/08 14:12:31;;;;;;;85.57;81.35;;;;;;;;;;5042388;28;20060;-59
2022/08/08 14:14:56;;;;;;;95.47;90.78;;;;;;;;;;5038804;28;20029;-59
2022/08/08 14:17:22;;;;;;;91.32;86.82;;;;;;;;;;5042279;28;20553;-59
2022/08/08 14:19:47;;;;;;;94.05;89.45;;;;;;;;;;5039223;28;20518;-59
2022/08/08 14:22:20;;;;;;;94.05;89.45;;;;;;;;;;5044257;28;20104;-61
2022/08/08 14:24:51;;;;;;;85.65;81.45;;;;;;;;;;5044113;28;20032;-59
2022/08/08 14:27:23;;;;;;;92.82;88.25;;;;;;;;;;5044438;28;20028;-59
2022/08/08 14:30:15;;;;;;;90.93;86.43;;;;;;;;;;5043940;28;20568;-59
2022/08/08 14:32:51;;;;;;;81.60;77.57;;;;;;;;;;5041422;28;20031;-59
2022/08/08 14:35:19;;;;;;;78.15;74.28;;;;;;;;;;5041846;28;20033;-58
2022/08/08 14:37:47;;;;;;;86.35;82.05;;;;;;;;;;5040045;28;20925;-59
2022/08/08 14:40:24;;;;;;;85.03;80.82;;;;;;;;;;5041349;28;20568;-58
2022/08/08 14:42:55;;;;;;;63.30;60.15;;;;;;;;;;5039448;28;20025;-58
2022/08/08 14:45:23;;;;;;;73.03;69.43;;;;;;;;;;5038185;28;20052;-58
2022/08/08 14:47:59;;;;;;;61.72;58.63;;;;;;;;;;5039690;28;20083;-58
2022/08/08 14:50:32;;;;;;;82.20;78.13;;;;;;;;;;5042006;28;20368;-57
2022/08/08 14:53:11;;;;;;;82.43;78.38;;;;;;;;;;5043431;28;20129;-57
2022/08/08 14:55:38;;;;;;;81.10;77.05;;;;;;;;;;5047657;28;20029;-57
2022/08/08 14:58:05;;;;;;;79.97;76.00;;;;;;;;;;5042121;28;20021;-57
2022/08/08 15:00:32;;;;;;;65.95;62.65;;;;;;;;;;5045079;28;20045;-58
2022/08/08 15:03:00;;;;;;;79.53;75.57;;;;;;;;;;5050621;28;20029;-58
2022/08/08 15:05:28;;;;;;;83.40;79.30;;;;;;;;;;5051029;28;20026;-58
2022/08/08 15:07:54;;;;;;;73.82;70.03;;;;;;;;;;5042123;28;20090;-57
2022/08/08 15:10:21;;;;;;;71.32;67.78;;;;;;;;;;5046320;28;20385;-57